Aérodrome :
LOGIN :

S'inscrire | Disclaimer

   EN    FR    IT 

 










Légende :    VFR   VFR Marginal   IFR   IFR Intensif   IFR Très Intensif
Visi : 
Plafond : 
>= 8 km
>= 3000ft
5 à 8 km
1000 à 3000 ft
1500m à 5 km
500 à 1000 ft
800 à 1500m
200 à 500 ft
< 800m
< 200 ft
Symboles :   Orages  Brouillard  Fortes neiges  Fortes précipitations  Vent > 20 kt
SIGMETs :   Divers  Orages  Givrage  Turbulence  Onde Orograph.  Cendres Volcan.







- Altitude de l'aérodrome : 308 ft
- Code IATA : POZ


EPPO - Poznan-Lawica

DERNIER METAR :
  • 141300Z 20004KT 6000 -RA BKN017 01/00 Q0990 R10/29//95

METARs EXPIRÉS :
  • 141230Z 24005KT 4000 -RASN BR BKN007 OVC020 01/00 Q0990 RERA R10/29//95
  • 141200Z 22010KT 6000 RA BKN013 03/01 Q0990 R10/29//95
  • 141130Z 20007KT 9999 -RA BKN020 03/02 Q0990 R10/29//95
  • 141100Z 19007KT 9999 BKN033 04/02 Q0990 R10/29//95
  • 141030Z 20009KT 9999 BKN027 04/02 Q0990 R10/29//95
  • 141000Z 20007KT 9999 BKN029 03/02 Q0989 R10/29//95

TAF TAF EPPO
Valide du 14 à 12h jusqu'au 15 à 12h UTC


141130Z 1412/1512 20010KT 9999 BKN030
TEMPO 1412/1423 24015G25KT RA BKN014
PROB30 1412/1416 3000 SHSNRA BKN007 BKN015CB
BECMG 1423/1502 17006KT BKN013
TEMPO 1502/1508 4000 BR BKN005
Pas de NOTAMs connus pour ce terrain.



MET'MAP, la Météo Aéronautique d'un coup d'oeil ! - Copyright ORBIFLY Décembre 2007 - Disclaimer

ORBIFLY MET'MAP TEAM :

Programmation & Développement : Alexandra Zaïnal
Conception & Développement : Baudouin d'Aumeries
Co-Programmation & Développement : Marc-Olivier Méhu
Soutien technique & logistique : Manuel Goepfert

Contact : metmap@orbifly.com




SOURCES & CREDITS :

   NOAA